createdAt,value
2019-04-01T00:00:51.393Z,1.73
2019-04-01T00:04:56.809Z,1.90
2019-04-01T00:09:02.078Z,1.60
2019-04-01T00:13:07.808Z,2.17
2019-04-01T00:17:14.161Z,2.00
2019-04-01T00:21:19.542Z,1.60
2019-04-01T00:25:27.934Z,1.80
2019-04-01T00:29:34.000Z,1.80
2019-04-01T00:33:39.326Z,1.60
2019-04-01T00:37:44.582Z,1.33
2019-04-01T00:41:58.871Z,2.33
2019-04-01T00:46:04.185Z,1.83
2019-04-01T00:50:09.524Z,1.90
2019-04-01T00:54:14.764Z,1.67
2019-04-01T00:58:20.609Z,2.03
2019-04-01T01:02:26.052Z,1.53
2019-04-01T01:06:31.338Z,1.70
2019-04-01T01:10:36.529Z,1.63
2019-04-01T01:14:41.673Z,1.77
2019-04-01T01:18:48.213Z,1.20
2019-04-01T01:22:53.379Z,1.60
2019-04-01T01:26:58.584Z,1.60
2019-04-01T01:31:03.703Z,1.30
2019-04-01T01:35:08.977Z,1.40
2019-04-01T01:39:33.203Z,1.77
2019-04-01T01:43:38.353Z,1.33
2019-04-01T01:47:43.487Z,1.60
2019-04-01T01:51:48.605Z,1.43
2019-04-01T01:55:53.909Z,1.50
2019-04-01T01:59:59.164Z,1.80
2019-04-01T02:04:24.826Z,1.40
2019-04-01T02:08:30.015Z,1.20
2019-04-01T02:12:35.388Z,1.50
2019-04-01T02:16:40.631Z,1.80
2019-04-01T02:20:45.734Z,1.50
2019-04-01T02:24:50.969Z,1.47
2019-04-01T02:28:56.118Z,1.17
2019-04-01T02:33:01.362Z,1.57
2019-04-01T02:37:06.468Z,1.70
2019-04-01T02:41:11.750Z,2.20
2019-04-01T02:45:56.327Z,1.60
2019-04-01T02:50:01.580Z,1.53
2019-04-01T02:54:06.768Z,1.83
2019-04-01T02:58:11.968Z,1.73
2019-04-01T03:02:17.035Z,1.60
2019-04-01T03:06:22.432Z,1.60
2019-04-01T03:10:27.674Z,1.77
2019-04-01T03:14:32.782Z,1.90
2019-04-01T03:18:37.903Z,1.60
2019-04-01T03:23:02.054Z,1.67
2019-04-01T03:27:07.251Z,1.77
2019-04-01T03:31:12.681Z,1.43
2019-04-01T03:35:38.501Z,1.60
2019-04-01T03:39:43.872Z,1.60
2019-04-01T03:43:49.045Z,2.20
2019-04-01T03:47:54.527Z,1.67
2019-04-01T03:52:00.607Z,2.03
2019-04-01T04:00:23.194Z,1.90
2019-04-01T04:04:28.478Z,1.70
2019-04-01T04:08:34.379Z,1.27
2019-04-01T04:16:55.721Z,2.20
2019-04-01T04:21:02.621Z,1.43
2019-04-01T04:25:07.874Z,2.33
2019-04-01T04:29:13.033Z,2.30
2019-04-01T04:33:18.330Z,3.13
2019-04-01T04:37:23.839Z,2.43
2019-04-01T04:41:29.036Z,2.47
2019-04-01T04:50:05.603Z,2.40
2019-04-01T04:54:10.743Z,2.43
2019-04-01T04:58:15.993Z,2.13
2019-04-01T05:02:24.430Z,2.10
2019-04-01T05:06:50.514Z,2.40
2019-04-01T05:10:56.016Z,2.33
2019-04-01T05:15:01.279Z,2.03
2019-04-01T05:19:06.923Z,2.27
2019-04-01T05:23:32.765Z,2.53
2019-04-01T05:27:58.855Z,2.30
2019-04-01T05:32:43.628Z,2.30
2019-04-01T05:36:48.904Z,2.77
2019-04-01T05:40:54.077Z,2.60
2019-04-01T05:44:59.343Z,2.33
2019-04-01T05:49:04.542Z,2.10
2019-04-01T05:53:09.684Z,2.73
2019-04-01T05:57:15.442Z,2.60
2019-04-01T06:05:37.683Z,2.50
2019-04-01T06:09:42.861Z,2.37
2019-04-01T06:13:48.085Z,2.30
2019-04-01T06:17:54.893Z,2.30
2019-04-01T06:22:38.215Z,2.50
2019-04-01T06:26:43.379Z,2.77
2019-04-01T06:30:48.686Z,2.90
2019-04-01T06:34:53.820Z,2.93
2019-04-01T06:38:59.164Z,2.20
2019-04-01T06:43:04.292Z,2.63
2019-04-01T06:47:09.555Z,3.00
2019-04-01T06:51:14.764Z,2.87
2019-04-01T06:55:20.053Z,2.47
2019-04-01T06:59:25.310Z,3.03
2019-04-01T07:03:31.984Z,2.30
2019-04-01T07:07:37.137Z,2.90
2019-04-01T07:11:42.819Z,2.47
2019-04-01T07:15:48.207Z,2.60
2019-04-01T07:20:03.852Z,3.00
2019-04-01T07:24:09.002Z,2.53
2019-04-01T07:28:14.250Z,2.80
2019-04-01T07:32:19.425Z,2.67
2019-04-01T07:36:24.637Z,2.42
2019-04-01T07:40:31.405Z,2.70
2019-04-01T07:44:36.538Z,2.70
2019-04-01T07:48:41.688Z,2.87
2019-04-01T07:52:46.875Z,2.97
2019-04-01T08:01:29.898Z,2.90
2019-04-01T08:05:35.109Z,3.17
2019-04-01T08:09:40.580Z,2.87
2019-04-01T08:13:45.716Z,3.27
2019-04-01T08:17:53.081Z,2.87
2019-04-01T08:21:58.221Z,2.80
2019-04-01T08:26:03.405Z,3.33
2019-04-01T08:30:29.402Z,3.10
2019-04-01T08:34:45.273Z,3.60
2019-04-01T08:43:08.058Z,3.60
2019-04-01T08:47:13.271Z,3.83
2019-04-01T08:51:38.885Z,4.23
2019-04-01T08:55:44.043Z,4.00
2019-04-01T08:59:49.296Z,4.07
2019-04-01T09:17:57.529Z,4.47
2019-04-01T09:22:02.792Z,4.83
2019-04-01T09:26:07.926Z,4.67
2019-04-01T09:30:13.435Z,5.00
2019-04-01T09:34:18.761Z,4.93
2019-04-01T09:38:24.376Z,5.37
2019-04-01T09:42:30.293Z,6.40
2019-04-01T09:55:28.378Z,6.13
2019-04-01T09:59:39.289Z,6.37
2019-04-01T10:03:44.550Z,6.50
2019-04-01T10:07:51.779Z,5.67
2019-04-01T10:11:57.051Z,6.60
2019-04-01T10:16:02.255Z,6.90
2019-04-01T10:24:46.029Z,6.87
2019-04-01T10:28:51.240Z,7.37
2019-04-01T10:37:45.755Z,8.03
2019-04-01T10:42:10.526Z,8.17
2019-04-01T10:46:15.910Z,7.93
2019-04-01T10:54:38.944Z,8.03
2019-04-01T10:58:44.182Z,8.30
2019-04-01T11:02:50.133Z,8.40
2019-04-01T11:07:06.036Z,9.13
2019-04-01T11:11:13.443Z,9.33
2019-04-01T11:19:35.128Z,8.80
2019-04-01T11:23:40.355Z,8.70
2019-04-01T11:27:45.504Z,10.43
2019-04-01T11:31:52.043Z,8.87
2019-04-01T11:36:11.362Z,9.40
2019-04-01T11:40:17.389Z,10.13
2019-04-01T11:44:22.728Z,9.63
2019-04-01T11:48:27.988Z,10.50
2019-04-01T11:52:33.103Z,10.23
2019-04-01T11:56:38.399Z,10.80
2019-04-01T12:00:43.578Z,10.77
2019-04-01T12:05:00.636Z,10.80
2019-04-01T12:09:58.871Z,10.45
2019-04-01T12:14:12.337Z,10.00
2019-04-01T12:18:17.617Z,10.37
2019-04-01T12:22:22.721Z,9.35
2019-04-01T12:26:29.542Z,9.13
2019-04-01T12:35:33.670Z,10.20
2019-04-01T12:39:50.773Z,10.00
2019-04-01T12:43:55.893Z,9.60
2019-04-01T12:48:01.085Z,9.20
2019-04-01T12:52:06.240Z,9.78
2019-04-01T12:56:11.343Z,9.38
2019-04-01T13:04:51.265Z,9.00
2019-04-01T13:09:05.234Z,9.63
2019-04-01T13:13:13.092Z,9.23
2019-04-01T13:17:38.037Z,9.38
2019-04-01T13:21:43.500Z,8.68
2019-04-01T13:25:48.656Z,8.18
2019-04-01T13:29:53.843Z,8.57
2019-04-01T13:38:59.592Z,9.63
2019-04-01T13:43:04.972Z,8.10
2019-04-01T13:52:09.549Z,8.90
2019-04-01T13:56:14.726Z,9.15
2019-04-01T14:00:20.364Z,8.60
2019-04-01T14:04:46.104Z,9.35
2019-04-01T14:08:51.539Z,7.92
2019-04-01T14:12:56.753Z,7.92
2019-04-01T14:17:01.902Z,9.25
2019-04-01T14:21:16.365Z,8.88
2019-04-01T14:25:14.474Z,8.18
2019-04-01T14:29:26.398Z,9.10
2019-04-01T14:33:32.707Z,9.78
2019-04-01T14:37:58.372Z,9.70
2019-04-01T14:42:10.202Z,8.93
2019-04-01T14:46:15.493Z,10.20
2019-04-01T14:50:20.728Z,9.43
2019-04-01T14:54:25.891Z,9.45
2019-04-01T14:58:31.018Z,7.90
2019-04-01T15:02:36.286Z,9.20
2019-04-01T15:06:41.483Z,8.90
2019-04-01T15:10:49.128Z,8.93
2019-04-01T15:14:54.368Z,9.35
2019-04-01T15:19:48.385Z,9.00
2019-04-01T15:23:27.295Z,8.87
2019-04-01T15:27:38.512Z,8.78
2019-04-01T15:31:44.478Z,8.33
2019-04-01T15:35:49.726Z,9.95
2019-04-01T15:40:14.372Z,8.78
2019-04-01T15:44:19.683Z,8.75
2019-04-01T15:48:25.068Z,8.67
2019-04-01T15:52:30.265Z,9.30
2019-04-01T15:56:35.535Z,8.80
2019-04-01T16:01:01.634Z,8.03
2019-04-01T16:05:08.761Z,9.05
2019-04-01T16:13:30.921Z,9.18
2019-04-01T16:17:36.128Z,9.08
2019-04-01T16:21:41.580Z,8.25
2019-04-01T16:25:46.937Z,8.93
2019-04-01T16:29:52.126Z,8.67
2019-04-01T16:33:57.378Z,8.53
2019-04-01T16:38:02.536Z,8.70
2019-04-01T16:42:07.726Z,7.92
2019-04-01T16:46:32.058Z,8.08
2019-04-01T16:50:37.169Z,7.37
2019-04-01T16:59:20.410Z,8.25
2019-04-01T17:03:36.948Z,7.20
2019-04-01T17:07:42.551Z,7.58
2019-04-01T17:16:17.629Z,7.12
2019-04-01T17:20:41.895Z,7.72
2019-04-01T17:24:47.121Z,11.57
2019-04-01T17:28:52.340Z,8.98
2019-04-01T17:32:57.574Z,10.05
2019-04-01T17:37:02.776Z,7.12
2019-04-01T17:41:08.009Z,7.30
2019-04-01T17:45:48.065Z,7.25
2019-04-01T17:49:53.176Z,8.20
2019-04-01T17:54:01.031Z,8.13
2019-04-01T17:58:10.764Z,8.15
2019-04-01T18:06:52.810Z,8.30
2019-04-01T18:10:58.053Z,8.10
2019-04-01T18:19:54.192Z,7.87
2019-04-01T18:23:59.375Z,8.17
2019-04-01T18:28:12.892Z,7.77
2019-04-01T18:32:43.300Z,8.37
2019-04-01T18:36:48.544Z,8.37
2019-04-01T18:40:54.101Z,7.87
2019-04-01T18:44:59.274Z,7.80
2019-04-01T18:49:05.166Z,7.80
2019-04-01T18:53:10.371Z,7.87
2019-04-01T18:57:15.848Z,7.13
2019-04-01T19:01:21.191Z,7.60
2019-04-01T19:05:26.311Z,7.83
2019-04-01T19:09:32.656Z,7.23
2019-04-01T19:13:57.704Z,6.87
2019-04-01T19:18:21.960Z,6.93
2019-04-01T19:22:27.441Z,6.83
2019-04-01T19:26:32.656Z,7.47
2019-04-01T19:30:56.834Z,7.23
2019-04-01T19:35:02.031Z,7.10
2019-04-01T19:39:07.837Z,7.00
2019-04-01T19:43:13.084Z,7.13
2019-04-01T19:47:18.324Z,6.40
2019-04-01T19:51:23.485Z,6.67
2019-04-01T19:55:28.682Z,6.47
2019-04-01T19:59:35.693Z,6.50
2019-04-01T20:04:00.146Z,6.43
2019-04-01T20:12:35.794Z,6.00
2019-04-01T20:16:41.149Z,6.40
2019-04-01T20:21:06.873Z,6.97
2019-04-01T20:34:18.825Z,6.93
2019-04-01T20:38:32.455Z,8.13
2019-04-01T20:42:51.867Z,6.60
2019-04-01T20:46:50.945Z,6.57
2019-04-01T20:55:22.590Z,6.50
2019-04-01T20:59:27.757Z,6.43
2019-04-01T21:03:32.913Z,6.80
2019-04-01T21:12:20.481Z,6.77
2019-04-01T21:16:25.676Z,6.77
2019-04-01T21:20:32.614Z,6.80
2019-04-01T21:24:39.958Z,6.23
2019-04-01T21:28:45.443Z,7.40
2019-04-01T21:42:06.535Z,7.33
2019-04-01T21:46:11.737Z,7.63
2019-04-01T21:54:49.680Z,7.50
2019-04-01T21:58:55.300Z,7.30
2019-04-01T22:03:00.396Z,6.50
2019-04-01T22:07:17.951Z,7.87
2019-04-01T22:11:23.141Z,6.40
2019-04-01T22:15:28.339Z,8.17
2019-04-01T22:19:33.520Z,7.43
2019-04-01T22:23:40.384Z,7.33
2019-04-01T22:28:11.320Z,8.03
2019-04-01T22:32:16.448Z,7.53
2019-04-01T22:36:30.569Z,8.20
2019-04-01T22:41:13.679Z,8.77
2019-04-01T22:45:30.389Z,8.57
2019-04-01T22:54:02.253Z,8.90
2019-04-01T23:07:28.538Z,11.67
2019-04-01T23:11:34.042Z,12.50
2019-04-01T23:15:39.238Z,12.53
2019-04-01T23:24:15.672Z,14.77
2019-04-01T23:28:21.038Z,14.90
2019-04-01T23:32:26.348Z,14.33
2019-04-01T23:36:31.531Z,13.63
2019-04-01T23:44:46.293Z,14.40
2019-04-01T23:48:51.571Z,14.67
2019-04-01T23:53:08.384Z,14.70
2019-04-01T23:57:13.668Z,13.87
